sensor_id;sensor_type;location;lat;lon;timestamp;temperature;humidity
3842;DHT22;1936;47.074;15.336;2022-12-07T00:00:26;0.20;99.90
3842;DHT22;1936;47.074;15.336;2022-12-07T00:02:31;0.10;99.90
3842;DHT22;1936;47.074;15.336;2022-12-07T00:04:34;0.10;99.90
3842;DHT22;1936;47.074;15.336;2022-12-07T00:06:39;0.10;99.90
3842;DHT22;1936;47.074;15.336;2022-12-07T00:08:43;0.00;99.90
3842;DHT22;1936;47.074;15.336;2022-12-07T00:10:46;0.00;99.90
3842;DHT22;1936;47.074;15.336;2022-12-07T00:12:50;0.10;99.90
3842;DHT22;1936;47.074;15.336;2022-12-07T00:14:54;0.00;99.90
3842;DHT22;1936;47.074;15.336;2022-12-07T00:16:58;0.00;99.90
3842;DHT22;1936;47.074;15.336;2022-12-07T00:19:03;0.00;99.90
3842;DHT22;1936;47.074;15.336;2022-12-07T00:21:09;0.00;99.90
3842;DHT22;1936;47.074;15.336;2022-12-07T00:23:12;0.10;99.90
3842;DHT22;1936;47.074;15.336;2022-12-07T00:25:16;0.10;99.90
3842;DHT22;1936;47.074;15.336;2022-12-07T00:27:19;0.00;99.90
3842;DHT22;1936;47.074;15.336;2022-12-07T00:29:22;0.00;99.90
3842;DHT22;1936;47.074;15.336;2022-12-07T00:31:29;0.00;99.90
3842;DHT22;1936;47.074;15.336;2022-12-07T00:33:33;-0.10;99.90
3842;DHT22;1936;47.074;15.336;2022-12-07T00:35:37;-0.10;99.90
3842;DHT22;1936;47.074;15.336;2022-12-07T00:37:40;-0.10;99.90
3842;DHT22;1936;47.074;15.336;2022-12-07T00:39:43;-0.10;99.90
3842;DHT22;1936;47.074;15.336;2022-12-07T00:41:48;-0.10;99.90
3842;DHT22;1936;47.074;15.336;2022-12-07T00:43:52;-0.10;99.90
3842;DHT22;1936;47.074;15.336;2022-12-07T00:45:56;-0.10;99.90
3842;DHT22;1936;47.074;15.336;2022-12-07T00:48:01;-0.10;99.90
3842;DHT22;1936;47.074;15.336;2022-12-07T00:50:05;-0.10;99.90
3842;DHT22;1936;47.074;15.336;2022-12-07T00:52:09;-0.20;99.90
3842;DHT22;1936;47.074;15.336;2022-12-07T00:54:12;-0.20;99.90
3842;DHT22;1936;47.074;15.336;2022-12-07T00:56:18;-0.20;99.90
3842;DHT22;1936;47.074;15.336;2022-12-07T00:58:23;-0.30;99.90
3842;DHT22;1936;47.074;15.336;2022-12-07T01:00:26;-0.30;99.90
3842;DHT22;1936;47.074;15.336;2022-12-07T01:02:30;-0.30;99.90
3842;DHT22;1936;47.074;15.336;2022-12-07T01:04:35;-0.40;99.90
3842;DHT22;1936;47.074;15.336;2022-12-07T01:06:38;-0.40;99.90
3842;DHT22;1936;47.074;15.336;2022-12-07T01:08:42;-0.40;99.90
3842;DHT22;1936;47.074;15.336;2022-12-07T01:10:45;-0.40;99.90
3842;DHT22;1936;47.074;15.336;2022-12-07T01:12:48;-0.40;99.90
3842;DHT22;1936;47.074;15.336;2022-12-07T01:14:52;-0.40;99.90
3842;DHT22;1936;47.074;15.336;2022-12-07T01:16:55;-0.40;99.90
3842;DHT22;1936;47.074;15.336;2022-12-07T01:18:59;-0.40;99.90
3842;DHT22;1936;47.074;15.336;2022-12-07T01:21:06;-0.40;99.90
3842;DHT22;1936;47.074;15.336;2022-12-07T01:23:10;-0.40;99.90
3842;DHT22;1936;47.074;15.336;2022-12-07T01:25:13;-0.40;99.90
3842;DHT22;1936;47.074;15.336;2022-12-07T01:27:17;-0.40;99.90
3842;DHT22;1936;47.074;15.336;2022-12-07T01:29:20;-0.40;99.90
3842;DHT22;1936;47.074;15.336;2022-12-07T01:31:25;-0.30;99.90
3842;DHT22;1936;47.074;15.336;2022-12-07T01:33:30;-0.30;99.90
3842;DHT22;1936;47.074;15.336;2022-12-07T01:35:34;-0.40;99.90
3842;DHT22;1936;47.074;15.336;2022-12-07T01:37:39;-0.50;99.90
3842;DHT22;1936;47.074;15.336;2022-12-07T01:39:42;-0.60;99.90
3842;DHT22;1936;47.074;15.336;2022-12-07T01:41:46;-0.60;99.90
3842;DHT22;1936;47.074;15.336;2022-12-07T01:44:19;-0.60;99.90
3842;DHT22;1936;47.074;15.336;2022-12-07T01:46:22;-0.60;99.90
3842;DHT22;1936;47.074;15.336;2022-12-07T01:48:28;-0.60;99.90
3842;DHT22;1936;47.074;15.336;2022-12-07T01:50:35;-0.60;99.90
3842;DHT22;1936;47.074;15.336;2022-12-07T01:52:42;-0.70;99.90
3842;DHT22;1936;47.074;15.336;2022-12-07T01:54:47;-0.70;99.90
3842;DHT22;1936;47.074;15.336;2022-12-07T01:56:53;-0.70;99.90
3842;DHT22;1936;47.074;15.336;2022-12-07T01:58:59;-0.70;99.90
3842;DHT22;1936;47.074;15.336;2022-12-07T02:01:03;-0.70;99.90
3842;DHT22;1936;47.074;15.336;2022-12-07T02:03:11;-0.80;99.90
3842;DHT22;1936;47.074;15.336;2022-12-07T02:05:18;-0.80;99.90
3842;DHT22;1936;47.074;15.336;2022-12-07T02:07:23;-0.90;99.90
3842;DHT22;1936;47.074;15.336;2022-12-07T02:09:28;-0.90;99.90
3842;DHT22;1936;47.074;15.336;2022-12-07T02:11:31;-0.90;99.90
3842;DHT22;1936;47.074;15.336;2022-12-07T02:13:36;-1.00;99.90
3842;DHT22;1936;47.074;15.336;2022-12-07T02:15:49;-1.00;99.90
3842;DHT22;1936;47.074;15.336;2022-12-07T02:17:58;-1.00;99.90
3842;DHT22;1936;47.074;15.336;2022-12-07T02:20:17;-1.10;99.90
3842;DHT22;1936;47.074;15.336;2022-12-07T02:22:43;-1.20;99.90
3842;DHT22;1936;47.074;15.336;2022-12-07T02:24:57;-1.20;99.90
3842;DHT22;1936;47.074;15.336;2022-12-07T02:29:39;-1.30;99.90
3842;DHT22;1936;47.074;15.336;2022-12-07T02:31:53;-1.40;99.90
3842;DHT22;1936;47.074;15.336;2022-12-07T02:34:04;-1.40;99.90
3842;DHT22;1936;47.074;15.336;2022-12-07T02:36:12;-1.40;99.90
3842;DHT22;1936;47.074;15.336;2022-12-07T02:38:21;-1.40;99.90
3842;DHT22;1936;47.074;15.336;2022-12-07T02:40:29;-1.40;99.90
3842;DHT22;1936;47.074;15.336;2022-12-07T02:42:38;-1.40;99.90
3842;DHT22;1936;47.074;15.336;2022-12-07T02:44:46;-1.40;99.90
3842;DHT22;1936;47.074;15.336;2022-12-07T02:46:52;-1.40;99.90
3842;DHT22;1936;47.074;15.336;2022-12-07T02:48:57;-1.50;99.90
3842;DHT22;1936;47.074;15.336;2022-12-07T02:51:02;-1.50;99.90
3842;DHT22;1936;47.074;15.336;2022-12-07T02:53:05;-1.60;99.90
3842;DHT22;1936;47.074;15.336;2022-12-07T02:55:09;-1.70;99.90
3842;DHT22;1936;47.074;15.336;2022-12-07T02:57:25;-1.70;99.90
3842;DHT22;1936;47.074;15.336;2022-12-07T02:59:41;-1.70;99.90
3842;DHT22;1936;47.074;15.336;2022-12-07T03:01:55;-1.70;99.90
3842;DHT22;1936;47.074;15.336;2022-12-07T03:04:08;-1.60;99.90
3842;DHT22;1936;47.074;15.336;2022-12-07T03:06:21;-1.60;99.90
3842;DHT22;1936;47.074;15.336;2022-12-07T03:08:31;-1.60;99.90
3842;DHT22;1936;47.074;15.336;2022-12-07T03:10:42;-1.70;99.90
3842;DHT22;1936;47.074;15.336;2022-12-07T03:12:57;-1.80;99.90
3842;DHT22;1936;47.074;15.336;2022-12-07T03:15:07;-1.90;99.90
3842;DHT22;1936;47.074;15.336;2022-12-07T03:17:15;-1.90;99.90
3842;DHT22;1936;47.074;15.336;2022-12-07T03:19:21;-2.00;99.90
3842;DHT22;1936;47.074;15.336;2022-12-07T03:21:27;-2.00;99.90
3842;DHT22;1936;47.074;15.336;2022-12-07T03:23:35;-2.00;99.90
3842;DHT22;1936;47.074;15.336;2022-12-07T03:25:46;-2.10;99.90
3842;DHT22;1936;47.074;15.336;2022-12-07T03:27:54;-2.10;99.90
3842;DHT22;1936;47.074;15.336;2022-12-07T03:30:00;-2.10;99.90
3842;DHT22;1936;47.074;15.336;2022-12-07T03:32:08;-2.10;99.90
3842;DHT22;1936;47.074;15.336;2022-12-07T03:34:19;-2.10;99.90
3842;DHT22;1936;47.074;15.336;2022-12-07T03:36:29;-2.10;99.90
3842;DHT22;1936;47.074;15.336;2022-12-07T03:38:38;-2.10;99.90
3842;DHT22;1936;47.074;15.336;2022-12-07T03:40:46;-2.10;99.90
3842;DHT22;1936;47.074;15.336;2022-12-07T03:42:53;-2.20;99.90
3842;DHT22;1936;47.074;15.336;2022-12-07T03:44:57;-2.20;99.90
3842;DHT22;1936;47.074;15.336;2022-12-07T03:47:03;-2.10;99.90
3842;DHT22;1936;47.074;15.336;2022-12-07T03:49:11;-2.00;99.90
3842;DHT22;1936;47.074;15.336;2022-12-07T03:51:22;-2.10;99.90
3842;DHT22;1936;47.074;15.336;2022-12-07T03:53:32;-2.10;99.90
3842;DHT22;1936;47.074;15.336;2022-12-07T03:55:41;-2.20;99.90
3842;DHT22;1936;47.074;15.336;2022-12-07T03:57:48;-2.20;99.90
3842;DHT22;1936;47.074;15.336;2022-12-07T03:59:54;-2.20;99.90
3842;DHT22;1936;47.074;15.336;2022-12-07T04:02:03;-2.20;99.90
3842;DHT22;1936;47.074;15.336;2022-12-07T04:04:06;-2.20;99.90
3842;DHT22;1936;47.074;15.336;2022-12-07T04:06:09;-2.30;99.90
3842;DHT22;1936;47.074;15.336;2022-12-07T04:08:14;-2.30;99.90
3842;DHT22;1936;47.074;15.336;2022-12-07T04:10:18;-2.30;99.90
3842;DHT22;1936;47.074;15.336;2022-12-07T04:12:22;-2.40;99.90
3842;DHT22;1936;47.074;15.336;2022-12-07T04:14:25;-2.30;99.90
3842;DHT22;1936;47.074;15.336;2022-12-07T04:16:28;-2.30;99.90
3842;DHT22;1936;47.074;15.336;2022-12-07T04:18:32;-2.40;99.90
3842;DHT22;1936;47.074;15.336;2022-12-07T04:20:35;-2.40;99.90
3842;DHT22;1936;47.074;15.336;2022-12-07T04:22:39;-2.40;99.90
3842;DHT22;1936;47.074;15.336;2022-12-07T04:24:43;-2.50;99.90
3842;DHT22;1936;47.074;15.336;2022-12-07T04:26:47;-2.50;99.90
3842;DHT22;1936;47.074;15.336;2022-12-07T04:28:50;-2.50;99.90
3842;DHT22;1936;47.074;15.336;2022-12-07T04:30:54;-2.50;99.90
3842;DHT22;1936;47.074;15.336;2022-12-07T04:32:57;-2.40;99.90
3842;DHT22;1936;47.074;15.336;2022-12-07T04:35:01;-2.40;99.90
3842;DHT22;1936;47.074;15.336;2022-12-07T04:37:04;-2.30;99.90
3842;DHT22;1936;47.074;15.336;2022-12-07T04:39:09;-2.30;99.90
3842;DHT22;1936;47.074;15.336;2022-12-07T04:41:18;-2.40;99.90
3842;DHT22;1936;47.074;15.336;2022-12-07T04:43:28;-2.40;99.90
3842;DHT22;1936;47.074;15.336;2022-12-07T04:45:31;-2.50;99.90
3842;DHT22;1936;47.074;15.336;2022-12-07T04:47:35;-2.60;99.90
3842;DHT22;1936;47.074;15.336;2022-12-07T04:49:38;-2.60;99.90
3842;DHT22;1936;47.074;15.336;2022-12-07T04:51:42;-2.60;99.90
3842;DHT22;1936;47.074;15.336;2022-12-07T04:53:45;-2.60;99.90
3842;DHT22;1936;47.074;15.336;2022-12-07T04:55:49;-2.60;99.90
3842;DHT22;1936;47.074;15.336;2022-12-07T04:57:53;-2.60;99.90
3842;DHT22;1936;47.074;15.336;2022-12-07T04:59:56;-2.70;99.90
3842;DHT22;1936;47.074;15.336;2022-12-07T05:02:00;-2.60;99.90
3842;DHT22;1936;47.074;15.336;2022-12-07T05:04:04;-2.60;99.90
3842;DHT22;1936;47.074;15.336;2022-12-07T05:06:07;-2.70;99.90
3842;DHT22;1936;47.074;15.336;2022-12-07T05:08:14;-2.70;99.90
3842;DHT22;1936;47.074;15.336;2022-12-07T05:10:18;-2.70;99.90
3842;DHT22;1936;47.074;15.336;2022-12-07T05:12:21;-2.60;99.90
3842;DHT22;1936;47.074;15.336;2022-12-07T05:14:26;-2.60;99.90
3842;DHT22;1936;47.074;15.336;2022-12-07T05:16:30;-2.60;99.90
3842;DHT22;1936;47.074;15.336;2022-12-07T05:18:33;-2.60;99.90
3842;DHT22;1936;47.074;15.336;2022-12-07T05:20:37;-2.60;99.90
3842;DHT22;1936;47.074;15.336;2022-12-07T05:22:43;-2.60;99.90
3842;DHT22;1936;47.074;15.336;2022-12-07T05:24:46;-2.60;99.90
3842;DHT22;1936;47.074;15.336;2022-12-07T05:26:50;-2.60;99.90
3842;DHT22;1936;47.074;15.336;2022-12-07T05:28:54;-2.60;99.90
3842;DHT22;1936;47.074;15.336;2022-12-07T05:30:59;-2.50;99.90
3842;DHT22;1936;47.074;15.336;2022-12-07T05:33:02;-2.60;99.90
3842;DHT22;1936;47.074;15.336;2022-12-07T05:35:07;-2.70;99.90
3842;DHT22;1936;47.074;15.336;2022-12-07T05:37:11;-2.70;99.90
3842;DHT22;1936;47.074;15.336;2022-12-07T05:39:15;-2.70;99.90
3842;DHT22;1936;47.074;15.336;2022-12-07T05:41:18;-2.50;99.90
3842;DHT22;1936;47.074;15.336;2022-12-07T05:43:39;-2.60;99.90
3842;DHT22;1936;47.074;15.336;2022-12-07T05:45:43;-2.50;99.90
3842;DHT22;1936;47.074;15.336;2022-12-07T05:47:48;-2.50;99.90
3842;DHT22;1936;47.074;15.336;2022-12-07T05:49:52;-2.60;99.90
3842;DHT22;1936;47.074;15.336;2022-12-07T05:51:55;-2.60;99.90
3842;DHT22;1936;47.074;15.336;2022-12-07T05:53:59;-2.60;99.90
3842;DHT22;1936;47.074;15.336;2022-12-07T05:56:02;-2.70;99.90
3842;DHT22;1936;47.074;15.336;2022-12-07T05:58:06;-2.60;99.90
3842;DHT22;1936;47.074;15.336;2022-12-07T06:00:26;-2.60;99.90
3842;DHT22;1936;47.074;15.336;2022-12-07T06:02:30;-2.70;99.90
3842;DHT22;1936;47.074;15.336;2022-12-07T06:04:38;-2.80;99.90
3842;DHT22;1936;47.074;15.336;2022-12-07T06:06:42;-2.80;99.90
3842;DHT22;1936;47.074;15.336;2022-12-07T06:08:45;-2.80;99.90
3842;DHT22;1936;47.074;15.336;2022-12-07T06:10:48;-2.80;99.90
3842;DHT22;1936;47.074;15.336;2022-12-07T06:13:13;-2.90;99.90
3842;DHT22;1936;47.074;15.336;2022-12-07T06:15:16;-2.90;99.90
3842;DHT22;1936;47.074;15.336;2022-12-07T06:17:19;-2.90;99.90
3842;DHT22;1936;47.074;15.336;2022-12-07T06:19:22;-2.90;99.90
3842;DHT22;1936;47.074;15.336;2022-12-07T06:21:27;-2.90;99.90
3842;DHT22;1936;47.074;15.336;2022-12-07T06:23:31;-2.90;99.90
3842;DHT22;1936;47.074;15.336;2022-12-07T06:25:34;-2.90;99.90
3842;DHT22;1936;47.074;15.336;2022-12-07T06:27:37;-2.80;99.90
3842;DHT22;1936;47.074;15.336;2022-12-07T06:29:40;-2.90;99.90
3842;DHT22;1936;47.074;15.336;2022-12-07T06:31:44;-2.90;99.90
3842;DHT22;1936;47.074;15.336;2022-12-07T06:33:47;-2.80;99.90
3842;DHT22;1936;47.074;15.336;2022-12-07T06:35:51;-2.60;99.90
3842;DHT22;1936;47.074;15.336;2022-12-07T06:37:55;-2.70;99.90
3842;DHT22;1936;47.074;15.336;2022-12-07T06:39:59;-2.80;99.90
3842;DHT22;1936;47.074;15.336;2022-12-07T06:42:03;-2.80;99.90
3842;DHT22;1936;47.074;15.336;2022-12-07T06:44:07;-2.80;99.90
3842;DHT22;1936;47.074;15.336;2022-12-07T06:46:10;-2.80;99.90
3842;DHT22;1936;47.074;15.336;2022-12-07T06:48:14;-2.80;99.90
3842;DHT22;1936;47.074;15.336;2022-12-07T06:50:17;-2.80;99.90
3842;DHT22;1936;47.074;15.336;2022-12-07T06:52:20;-2.80;99.90
3842;DHT22;1936;47.074;15.336;2022-12-07T06:54:25;-2.90;99.90
3842;DHT22;1936;47.074;15.336;2022-12-07T06:56:29;-2.90;99.90
3842;DHT22;1936;47.074;15.336;2022-12-07T06:58:32;-2.80;99.90
3842;DHT22;1936;47.074;15.336;2022-12-07T07:00:36;-2.70;99.90
3842;DHT22;1936;47.074;15.336;2022-12-07T07:02:39;-2.50;99.90
3842;DHT22;1936;47.074;15.336;2022-12-07T07:04:43;-2.40;99.90
3842;DHT22;1936;47.074;15.336;2022-12-07T07:06:46;-2.20;99.90
3842;DHT22;1936;47.074;15.336;2022-12-07T07:08:49;-2.20;99.90
3842;DHT22;1936;47.074;15.336;2022-12-07T07:10:57;-2.10;99.90
3842;DHT22;1936;47.074;15.336;2022-12-07T07:13:00;-2.00;99.90
3842;DHT22;1936;47.074;15.336;2022-12-07T07:15:05;-1.80;99.90
3842;DHT22;1936;47.074;15.336;2022-12-07T07:17:08;-1.70;99.90
3842;DHT22;1936;47.074;15.336;2022-12-07T07:19:12;-1.60;99.90
3842;DHT22;1936;47.074;15.336;2022-12-07T07:21:15;-1.40;99.90
3842;DHT22;1936;47.074;15.336;2022-12-07T07:23:19;-1.20;99.90
3842;DHT22;1936;47.074;15.336;2022-12-07T07:25:23;-1.10;99.90
3842;DHT22;1936;47.074;15.336;2022-12-07T07:27:27;-1.00;99.90
3842;DHT22;1936;47.074;15.336;2022-12-07T07:29:31;-0.70;99.90
3842;DHT22;1936;47.074;15.336;2022-12-07T07:31:34;-0.70;99.90
3842;DHT22;1936;47.074;15.336;2022-12-07T07:33:38;-0.50;99.90
3842;DHT22;1936;47.074;15.336;2022-12-07T07:35:42;-0.40;99.90
3842;DHT22;1936;47.074;15.336;2022-12-07T07:37:45;-0.30;99.90
3842;DHT22;1936;47.074;15.336;2022-12-07T07:39:48;-0.20;99.90
3842;DHT22;1936;47.074;15.336;2022-12-07T07:41:52;-0.20;99.90
3842;DHT22;1936;47.074;15.336;2022-12-07T07:43:57;-0.10;99.90
3842;DHT22;1936;47.074;15.336;2022-12-07T07:46:00;0.00;99.90
3842;DHT22;1936;47.074;15.336;2022-12-07T07:48:04;0.10;99.90
3842;DHT22;1936;47.074;15.336;2022-12-07T07:50:08;0.10;99.90
3842;DHT22;1936;47.074;15.336;2022-12-07T07:52:11;0.10;99.90
3842;DHT22;1936;47.074;15.336;2022-12-07T07:54:14;0.20;99.90
3842;DHT22;1936;47.074;15.336;2022-12-07T07:56:18;0.30;99.90
3842;DHT22;1936;47.074;15.336;2022-12-07T07:58:21;0.30;99.90
3842;DHT22;1936;47.074;15.336;2022-12-07T08:00:26;0.40;99.90
3842;DHT22;1936;47.074;15.336;2022-12-07T08:02:30;0.40;99.90
3842;DHT22;1936;47.074;15.336;2022-12-07T08:04:33;0.40;99.90
3842;DHT22;1936;47.074;15.336;2022-12-07T08:06:37;0.40;99.90
3842;DHT22;1936;47.074;15.336;2022-12-07T08:08:40;0.40;99.90
3842;DHT22;1936;47.074;15.336;2022-12-07T08:10:44;0.30;99.90
3842;DHT22;1936;47.074;15.336;2022-12-07T08:12:47;0.40;99.90
3842;DHT22;1936;47.074;15.336;2022-12-07T08:15:08;0.50;99.90
3842;DHT22;1936;47.074;15.336;2022-12-07T08:17:13;0.40;99.90
3842;DHT22;1936;47.074;15.336;2022-12-07T08:19:17;0.50;99.90
3842;DHT22;1936;47.074;15.336;2022-12-07T08:21:20;0.70;99.90
3842;DHT22;1936;47.074;15.336;2022-12-07T08:23:23;0.80;99.90
3842;DHT22;1936;47.074;15.336;2022-12-07T08:25:40;0.90;99.90
3842;DHT22;1936;47.074;15.336;2022-12-07T08:27:43;1.20;99.90
3842;DHT22;1936;47.074;15.336;2022-12-07T08:29:46;1.40;99.90
3842;DHT22;1936;47.074;15.336;2022-12-07T08:31:50;1.40;99.90
3842;DHT22;1936;47.074;15.336;2022-12-07T08:33:55;1.60;99.90
3842;DHT22;1936;47.074;15.336;2022-12-07T08:36:00;1.80;99.90
3842;DHT22;1936;47.074;15.336;2022-12-07T08:38:04;1.90;99.90
3842;DHT22;1936;47.074;15.336;2022-12-07T08:40:09;2.10;99.90
3842;DHT22;1936;47.074;15.336;2022-12-07T08:42:12;2.30;99.90
3842;DHT22;1936;47.074;15.336;2022-12-07T08:44:16;2.40;99.90
3842;DHT22;1936;47.074;15.336;2022-12-07T08:46:23;2.40;99.90
3842;DHT22;1936;47.074;15.336;2022-12-07T08:48:27;2.60;99.90
3842;DHT22;1936;47.074;15.336;2022-12-07T08:50:32;2.70;99.90
3842;DHT22;1936;47.074;15.336;2022-12-07T08:52:37;3.80;99.90
3842;DHT22;1936;47.074;15.336;2022-12-07T08:54:42;3.80;99.90
3842;DHT22;1936;47.074;15.336;2022-12-07T08:56:46;3.90;99.90
3842;DHT22;1936;47.074;15.336;2022-12-07T08:58:58;3.80;99.90
3842;DHT22;1936;47.074;15.336;2022-12-07T09:01:01;4.30;99.90
3842;DHT22;1936;47.074;15.336;2022-12-07T09:03:05;4.20;99.90
3842;DHT22;1936;47.074;15.336;2022-12-07T09:05:09;4.10;99.90
3842;DHT22;1936;47.074;15.336;2022-12-07T09:07:19;4.00;99.90
3842;DHT22;1936;47.074;15.336;2022-12-07T09:09:22;4.00;99.90
3842;DHT22;1936;47.074;15.336;2022-12-07T09:11:26;4.60;99.90
3842;DHT22;1936;47.074;15.336;2022-12-07T09:13:30;4.90;99.90
3842;DHT22;1936;47.074;15.336;2022-12-07T09:15:33;5.10;99.90
3842;DHT22;1936;47.074;15.336;2022-12-07T09:17:36;5.40;99.90
3842;DHT22;1936;47.074;15.336;2022-12-07T09:19:40;5.60;99.90
3842;DHT22;1936;47.074;15.336;2022-12-07T09:21:44;5.50;99.90
3842;DHT22;1936;47.074;15.336;2022-12-07T09:23:50;5.40;99.90
3842;DHT22;1936;47.074;15.336;2022-12-07T09:25:54;5.50;99.90
3842;DHT22;1936;47.074;15.336;2022-12-07T09:27:57;4.70;99.90
3842;DHT22;1936;47.074;15.336;2022-12-07T09:30:01;5.00;99.90
3842;DHT22;1936;47.074;15.336;2022-12-07T09:32:05;5.00;99.90
3842;DHT22;1936;47.074;15.336;2022-12-07T09:34:12;5.20;99.90
3842;DHT22;1936;47.074;15.336;2022-12-07T09:36:17;6.00;99.90
3842;DHT22;1936;47.074;15.336;2022-12-07T09:38:21;6.80;99.90
3842;DHT22;1936;47.074;15.336;2022-12-07T09:40:28;7.30;99.90
3842;DHT22;1936;47.074;15.336;2022-12-07T09:42:35;7.70;99.90
3842;DHT22;1936;47.074;15.336;2022-12-07T09:44:40;7.20;99.90
3842;DHT22;1936;47.074;15.336;2022-12-07T09:46:43;7.20;99.90
3842;DHT22;1936;47.074;15.336;2022-12-07T09:48:49;7.10;99.90
3842;DHT22;1936;47.074;15.336;2022-12-07T09:50:54;6.60;99.90
3842;DHT22;1936;47.074;15.336;2022-12-07T09:53:08;6.40;99.90
3842;DHT22;1936;47.074;15.336;2022-12-07T09:55:13;6.90;99.90
3842;DHT22;1936;47.074;15.336;2022-12-07T09:57:21;6.80;99.90
3842;DHT22;1936;47.074;15.336;2022-12-07T09:59:28;6.40;99.90
3842;DHT22;1936;47.074;15.336;2022-12-07T10:01:38;6.40;99.90
3842;DHT22;1936;47.074;15.336;2022-12-07T10:03:47;6.40;99.90
3842;DHT22;1936;47.074;15.336;2022-12-07T10:05:52;6.40;99.90
3842;DHT22;1936;47.074;15.336;2022-12-07T10:07:56;6.10;99.90
3842;DHT22;1936;47.074;15.336;2022-12-07T10:10:02;6.30;99.90
3842;DHT22;1936;47.074;15.336;2022-12-07T10:12:08;6.90;99.90
3842;DHT22;1936;47.074;15.336;2022-12-07T10:14:13;6.80;99.90
3842;DHT22;1936;47.074;15.336;2022-12-07T10:16:38;6.60;99.90
3842;DHT22;1936;47.074;15.336;2022-12-07T10:18:42;6.50;99.90
3842;DHT22;1936;47.074;15.336;2022-12-07T10:20:46;6.20;99.90
3842;DHT22;1936;47.074;15.336;2022-12-07T10:22:59;6.40;99.90
3842;DHT22;1936;47.074;15.336;2022-12-07T10:25:09;6.90;99.90
3842;DHT22;1936;47.074;15.336;2022-12-07T10:27:22;7.60;99.90
3842;DHT22;1936;47.074;15.336;2022-12-07T10:29:29;7.90;99.90
3842;DHT22;1936;47.074;15.336;2022-12-07T10:31:38;7.40;99.90
3842;DHT22;1936;47.074;15.336;2022-12-07T10:33:49;7.50;99.90
3842;DHT22;1936;47.074;15.336;2022-12-07T10:35:53;7.30;99.90
3842;DHT22;1936;47.074;15.336;2022-12-07T10:38:00;7.40;99.90
3842;DHT22;1936;47.074;15.336;2022-12-07T10:40:25;7.90;99.90
3842;DHT22;1936;47.074;15.336;2022-12-07T10:42:30;7.80;99.90
3842;DHT22;1936;47.074;15.336;2022-12-07T10:44:35;7.70;99.90
3842;DHT22;1936;47.074;15.336;2022-12-07T10:47:12;7.60;99.90
3842;DHT22;1936;47.074;15.336;2022-12-07T10:49:37;7.50;99.90
3842;DHT22;1936;47.074;15.336;2022-12-07T10:51:47;7.90;99.90
3842;DHT22;1936;47.074;15.336;2022-12-07T10:54:03;7.90;99.90
3842;DHT22;1936;47.074;15.336;2022-12-07T10:56:38;7.90;99.90
3842;DHT22;1936;47.074;15.336;2022-12-07T10:59:04;8.00;99.90
3842;DHT22;1936;47.074;15.336;2022-12-07T11:01:24;8.20;99.90
3842;DHT22;1936;47.074;15.336;2022-12-07T11:03:43;8.40;99.90
3842;DHT22;1936;47.074;15.336;2022-12-07T11:05:56;8.50;99.90
3842;DHT22;1936;47.074;15.336;2022-12-07T11:08:09;8.40;99.90
3842;DHT22;1936;47.074;15.336;2022-12-07T11:10:19;8.40;99.90
3842;DHT22;1936;47.074;15.336;2022-12-07T11:12:36;8.60;99.90
3842;DHT22;1936;47.074;15.336;2022-12-07T11:14:47;8.90;99.90
3842;DHT22;1936;47.074;15.336;2022-12-07T11:16:57;9.30;99.90
3842;DHT22;1936;47.074;15.336;2022-12-07T11:19:16;8.70;99.90
3842;DHT22;1936;47.074;15.336;2022-12-07T11:21:33;8.10;99.90
3842;DHT22;1936;47.074;15.336;2022-12-07T11:23:46;8.20;99.90
3842;DHT22;1936;47.074;15.336;2022-12-07T11:25:57;8.10;99.90
3842;DHT22;1936;47.074;15.336;2022-12-07T11:28:15;7.20;99.90
3842;DHT22;1936;47.074;15.336;2022-12-07T11:30:22;6.60;99.90
3842;DHT22;1936;47.074;15.336;2022-12-07T11:32:42;6.50;99.90
3842;DHT22;1936;47.074;15.336;2022-12-07T11:34:55;6.40;99.90
3842;DHT22;1936;47.074;15.336;2022-12-07T11:37:05;6.20;99.90
3842;DHT22;1936;47.074;15.336;2022-12-07T11:39:26;6.00;99.90
3842;DHT22;1936;47.074;15.336;2022-12-07T11:41:35;6.20;99.90
3842;DHT22;1936;47.074;15.336;2022-12-07T11:43:55;6.20;99.90
3842;DHT22;1936;47.074;15.336;2022-12-07T11:46:02;6.50;99.90
3842;DHT22;1936;47.074;15.336;2022-12-07T11:48:14;6.50;99.90
3842;DHT22;1936;47.074;15.336;2022-12-07T11:50:26;6.20;99.90
3842;DHT22;1936;47.074;15.336;2022-12-07T11:52:42;6.00;99.90
3842;DHT22;1936;47.074;15.336;2022-12-07T11:54:46;5.60;99.90
3842;DHT22;1936;47.074;15.336;2022-12-07T11:56:51;5.60;99.90
3842;DHT22;1936;47.074;15.336;2022-12-07T11:59:02;5.60;99.90
3842;DHT22;1936;47.074;15.336;2022-12-07T12:01:15;5.60;99.90
3842;DHT22;1936;47.074;15.336;2022-12-07T12:03:30;5.60;99.90
3842;DHT22;1936;47.074;15.336;2022-12-07T12:05:34;5.60;99.90
3842;DHT22;1936;47.074;15.336;2022-12-07T12:07:37;5.70;99.90
3842;DHT22;1936;47.074;15.336;2022-12-07T12:10:05;6.00;99.90
3842;DHT22;1936;47.074;15.336;2022-12-07T12:12:36;6.70;99.90
3842;DHT22;1936;47.074;15.336;2022-12-07T12:15:15;6.90;99.90
3842;DHT22;1936;47.074;15.336;2022-12-07T12:17:45;7.80;99.90
3842;DHT22;1936;47.074;15.336;2022-12-07T12:20:01;8.00;99.90
3842;DHT22;1936;47.074;15.336;2022-12-07T12:22:12;8.30;99.90
3842;DHT22;1936;47.074;15.336;2022-12-07T12:24:19;8.20;99.90
3842;DHT22;1936;47.074;15.336;2022-12-07T12:26:28;8.30;99.90
3842;DHT22;1936;47.074;15.336;2022-12-07T12:28:39;8.70;99.90
3842;DHT22;1936;47.074;15.336;2022-12-07T12:31:07;8.50;99.90
3842;DHT22;1936;47.074;15.336;2022-12-07T12:33:16;8.50;99.90
3842;DHT22;1936;47.074;15.336;2022-12-07T12:35:31;9.00;99.90
3842;DHT22;1936;47.074;15.336;2022-12-07T12:37:41;9.90;99.90
3842;DHT22;1936;47.074;15.336;2022-12-07T12:42:43;9.70;99.90
3842;DHT22;1936;47.074;15.336;2022-12-07T12:45:17;10.80;99.90
3842;DHT22;1936;47.074;15.336;2022-12-07T12:47:51;11.60;99.80
3842;DHT22;1936;47.074;15.336;2022-12-07T12:50:17;12.80;96.40
3842;DHT22;1936;47.074;15.336;2022-12-07T12:55:16;13.00;86.90
3842;DHT22;1936;47.074;15.336;2022-12-07T12:57:27;12.20;88.60
3842;DHT22;1936;47.074;15.336;2022-12-07T12:59:32;11.00;93.00
3842;DHT22;1936;47.074;15.336;2022-12-07T13:01:43;10.00;97.90
3842;DHT22;1936;47.074;15.336;2022-12-07T13:03:52;9.50;99.90
3842;DHT22;1936;47.074;15.336;2022-12-07T13:06:18;9.10;99.90
3842;DHT22;1936;47.074;15.336;2022-12-07T13:08:25;8.40;99.90
3842;DHT22;1936;47.074;15.336;2022-12-07T13:10:40;7.70;99.90
3842;DHT22;1936;47.074;15.336;2022-12-07T13:12:55;7.30;99.90
3842;DHT22;1936;47.074;15.336;2022-12-07T13:14:59;7.00;99.90
3842;DHT22;1936;47.074;15.336;2022-12-07T13:17:03;6.80;99.90
3842;DHT22;1936;47.074;15.336;2022-12-07T13:22:44;6.30;99.90
3842;DHT22;1936;47.074;15.336;2022-12-07T13:24:54;6.10;99.90
3842;DHT22;1936;47.074;15.336;2022-12-07T13:27:00;5.80;99.90
3842;DHT22;1936;47.074;15.336;2022-12-07T13:29:10;5.60;99.90
3842;DHT22;1936;47.074;15.336;2022-12-07T13:31:31;5.50;99.90
3842;DHT22;1936;47.074;15.336;2022-12-07T13:33:35;5.30;99.90
3842;DHT22;1936;47.074;15.336;2022-12-07T13:35:38;5.20;99.90
3842;DHT22;1936;47.074;15.336;2022-12-07T13:37:42;5.10;99.90
3842;DHT22;1936;47.074;15.336;2022-12-07T13:39:47;5.00;99.90
3842;DHT22;1936;47.074;15.336;2022-12-07T13:41:55;4.80;99.90
3842;DHT22;1936;47.074;15.336;2022-12-07T13:44:03;4.60;99.90
3842;DHT22;1936;47.074;15.336;2022-12-07T13:46:08;4.50;99.90
3842;DHT22;1936;47.074;15.336;2022-12-07T13:48:21;4.40;99.90
3842;DHT22;1936;47.074;15.336;2022-12-07T13:50:27;4.30;99.90
3842;DHT22;1936;47.074;15.336;2022-12-07T13:52:31;4.20;99.90
3842;DHT22;1936;47.074;15.336;2022-12-07T13:54:44;4.20;99.90